Farmington, WA

5:32 AM PST on November 27, 2014 (GMT -0800)
Palouse Cove | Change Station
CLOSE
Current Station
Personal Weather Station
Location: Palouse, WA
Elevation: 2462 ft
Nearby Weather Stations

Elev 2462 ft 46.91 °N, 117.08 °W | Updated 60 seconds ago

Overcast
Overcast
45.3 °F
Feels Like 45 °F
N
0.0
Wind Variable Wind from SW
Gusts 3.0 mph

Today
High -- | Low -- °F
--% Chance of Precip.
Yesterday
High -- | Low -- °F
Precip. -- in
7:08 AM 4:02 PM
Waxing Crescent, 29% visible
Pressure 29.99 in
Visibility 10.0 miles
Clouds Mostly Cloudy 7500 ft
Windchill 45 °F
Dew Point 41 °F
Humidity 85%
Rainfall 0.00 in
Snow Depth Not available.
UV 0 out of 12
Pollen .40 out of 12
Air Quality Not available.
Flu Activity Not available.
METAR KPUW 271253Z AUTO 12006KT 10SM BKN075 08/04 A2996 RMK AO2 SLP154 T00780039

More Conditions Fewer Conditions

Pressure 29.99 in
Visibility 10.0 miles
Clouds Mostly Cloudy 7500 ft
Windchill 45 °F
Dew Point 41 °F
Humidity 85%
Rainfall 0.00 in
Snow Depth Not available.
UV 0 out of 12
Pollen .40 out of 12
Air Quality Not available.
Flu Activity Not available.
METAR KPUW 271253Z AUTO 12006KT 10SM BKN075 08/04 A2996 RMK AO2 SLP154 T00780039

More Conditions Fewer Conditions

10-Day Weather Forecast

Almanac

Astronomy

Nov. 27, 2014 Rise Set
Actual Time
Civil Twilight
Nautical Twilight
Astronomical Twilight
Moon
Length of Visible Light
Length of Day
Tomorrow will be .
, % of the Moon is Illuminated

Today's Extremes

State Highs State Lows

Community

WunderPhotos

Upload Photos

1,773,998 photos uploaded!

WunderBlogs® & News

Nearby

Air Quality

  Air Quality AQ Index Pollutant
Not available.

Snow Depth

Station Depth Elevation

Earthquake Activity

City Distance Mag. Time & Date
Minimum magnitude displayed is 2.5.

Coastal Water Temperatures

Place Temperature

Nearby Weather Stations